sensor_id;sensor_type;location;lat;lon;timestamp;P1;durP1;ratioP1;P2;durP2;ratioP2
31298;SDS011;17927;52.350;13.402;2024-03-06T00:00:19;31.55;;;17.25;;
31298;SDS011;17927;52.350;13.402;2024-03-06T00:02:45;27.58;;;16.98;;
31298;SDS011;17927;52.350;13.402;2024-03-06T00:05:11;27.05;;;16.52;;
31298;SDS011;17927;52.350;13.402;2024-03-06T00:07:37;25.67;;;16.73;;
31298;SDS011;17927;52.350;13.402;2024-03-06T00:10:02;29.73;;;17.40;;
31298;SDS011;17927;52.350;13.402;2024-03-06T00:12:29;27.10;;;16.25;;
31298;SDS011;17927;52.350;13.402;2024-03-06T00:14:55;20.77;;;14.57;;
31298;SDS011;17927;52.350;13.402;2024-03-06T00:17:20;22.08;;;14.13;;
31298;SDS011;17927;52.350;13.402;2024-03-06T00:19:45;24.15;;;14.82;;
31298;SDS011;17927;52.350;13.402;2024-03-06T00:22:10;27.52;;;16.10;;
31298;SDS011;17927;52.350;13.402;2024-03-06T00:24:36;30.58;;;17.85;;
31298;SDS011;17927;52.350;13.402;2024-03-06T00:27:01;25.83;;;16.52;;
31298;SDS011;17927;52.350;13.402;2024-03-06T00:29:26;24.80;;;16.33;;
31298;SDS011;17927;52.350;13.402;2024-03-06T00:31:52;27.77;;;17.52;;
31298;SDS011;17927;52.350;13.402;2024-03-06T00:34:17;27.25;;;15.50;;
31298;SDS011;17927;52.350;13.402;2024-03-06T00:36:43;25.63;;;16.00;;
31298;SDS011;17927;52.350;13.402;2024-03-06T00:39:08;31.02;;;16.55;;
31298;SDS011;17927;52.350;13.402;2024-03-06T00:41:34;23.48;;;15.40;;
31298;SDS011;17927;52.350;13.402;2024-03-06T00:44:00;27.45;;;14.77;;
31298;SDS011;17927;52.350;13.402;2024-03-06T00:46:25;27.75;;;16.42;;
31298;SDS011;17927;52.350;13.402;2024-03-06T00:48:50;23.38;;;14.75;;
31298;SDS011;17927;52.350;13.402;2024-03-06T00:51:15;26.05;;;16.17;;
31298;SDS011;17927;52.350;13.402;2024-03-06T00:53:41;23.95;;;14.48;;
31298;SDS011;17927;52.350;13.402;2024-03-06T00:56:06;23.45;;;14.45;;
31298;SDS011;17927;52.350;13.402;2024-03-06T00:58:32;25.38;;;15.52;;
31298;SDS011;17927;52.350;13.402;2024-03-06T01:00:58;24.40;;;15.07;;
31298;SDS011;17927;52.350;13.402;2024-03-06T01:03:23;24.92;;;15.23;;
31298;SDS011;17927;52.350;13.402;2024-03-06T01:05:49;25.25;;;15.27;;
31298;SDS011;17927;52.350;13.402;2024-03-06T01:08:14;25.33;;;15.15;;
31298;SDS011;17927;52.350;13.402;2024-03-06T01:10:42;25.15;;;15.35;;
31298;SDS011;17927;52.350;13.402;2024-03-06T01:13:07;25.25;;;15.88;;
31298;SDS011;17927;52.350;13.402;2024-03-06T01:15:35;22.58;;;15.18;;
31298;SDS011;17927;52.350;13.402;2024-03-06T01:18:01;28.08;;;15.55;;
31298;SDS011;17927;52.350;13.402;2024-03-06T01:20:26;25.13;;;15.60;;
31298;SDS011;17927;52.350;13.402;2024-03-06T01:22:51;27.20;;;14.50;;
31298;SDS011;17927;52.350;13.402;2024-03-06T01:25:16;26.58;;;15.38;;
31298;SDS011;17927;52.350;13.402;2024-03-06T01:27:42;23.23;;;15.93;;
31298;SDS011;17927;52.350;13.402;2024-03-06T01:30:07;25.08;;;15.27;;
31298;SDS011;17927;52.350;13.402;2024-03-06T01:32:33;22.92;;;15.35;;
31298;SDS011;17927;52.350;13.402;2024-03-06T01:34:58;27.85;;;15.13;;
31298;SDS011;17927;52.350;13.402;2024-03-06T01:37:23;26.23;;;15.25;;
31298;SDS011;17927;52.350;13.402;2024-03-06T01:39:48;29.30;;;15.10;;
31298;SDS011;17927;52.350;13.402;2024-03-06T01:42:16;23.35;;;15.70;;
31298;SDS011;17927;52.350;13.402;2024-03-06T01:44:42;25.98;;;15.18;;
31298;SDS011;17927;52.350;13.402;2024-03-06T01:47:07;23.98;;;15.68;;
31298;SDS011;17927;52.350;13.402;2024-03-06T01:49:32;25.48;;;14.65;;
31298;SDS011;17927;52.350;13.402;2024-03-06T01:51:58;25.75;;;16.23;;
31298;SDS011;17927;52.350;13.402;2024-03-06T01:54:24;24.95;;;14.40;;
31298;SDS011;17927;52.350;13.402;2024-03-06T01:56:50;25.60;;;15.55;;
31298;SDS011;17927;52.350;13.402;2024-03-06T01:59:17;23.13;;;14.40;;
31298;SDS011;17927;52.350;13.402;2024-03-06T02:01:45;22.45;;;14.38;;
31298;SDS011;17927;52.350;13.402;2024-03-06T02:04:11;21.35;;;14.18;;
31298;SDS011;17927;52.350;13.402;2024-03-06T02:06:40;22.30;;;14.68;;
31298;SDS011;17927;52.350;13.402;2024-03-06T02:09:06;21.77;;;14.43;;
31298;SDS011;17927;52.350;13.402;2024-03-06T02:11:32;22.13;;;14.77;;
31298;SDS011;17927;52.350;13.402;2024-03-06T02:13:57;23.10;;;14.30;;
31298;SDS011;17927;52.350;13.402;2024-03-06T02:16:23;22.27;;;14.23;;
31298;SDS011;17927;52.350;13.402;2024-03-06T02:22:02;21.90;;;15.05;;
31298;SDS011;17927;52.350;13.402;2024-03-06T02:24:27;22.65;;;14.80;;
31298;SDS011;17927;52.350;13.402;2024-03-06T02:26:52;19.60;;;13.55;;
31298;SDS011;17927;52.350;13.402;2024-03-06T02:29:18;23.90;;;13.85;;
31298;SDS011;17927;52.350;13.402;2024-03-06T02:31:43;21.70;;;14.15;;
31298;SDS011;17927;52.350;13.402;2024-03-06T02:34:08;19.15;;;13.02;;
31298;SDS011;17927;52.350;13.402;2024-03-06T02:36:34;25.60;;;13.20;;
31298;SDS011;17927;52.350;13.402;2024-03-06T02:39:01;22.88;;;14.52;;
31298;SDS011;17927;52.350;13.402;2024-03-06T02:41:26;23.60;;;14.38;;
31298;SDS011;17927;52.350;13.402;2024-03-06T02:43:52;20.73;;;14.50;;
31298;SDS011;17927;52.350;13.402;2024-03-06T02:46:17;25.95;;;13.82;;
31298;SDS011;17927;52.350;13.402;2024-03-06T02:48:42;21.67;;;13.63;;
31298;SDS011;17927;52.350;13.402;2024-03-06T02:51:07;20.65;;;13.68;;
31298;SDS011;17927;52.350;13.402;2024-03-06T02:53:32;21.77;;;13.80;;
31298;SDS011;17927;52.350;13.402;2024-03-06T02:55:58;22.77;;;13.80;;
31298;SDS011;17927;52.350;13.402;2024-03-06T02:58:23;22.58;;;14.60;;
31298;SDS011;17927;52.350;13.402;2024-03-06T03:00:48;21.67;;;13.50;;
31298;SDS011;17927;52.350;13.402;2024-03-06T03:03:14;21.80;;;14.50;;
31298;SDS011;17927;52.350;13.402;2024-03-06T03:05:39;21.70;;;13.15;;
31298;SDS011;17927;52.350;13.402;2024-03-06T03:08:05;20.90;;;13.38;;
31298;SDS011;17927;52.350;13.402;2024-03-06T03:10:30;22.83;;;14.57;;
31298;SDS011;17927;52.350;13.402;2024-03-06T03:12:56;21.40;;;14.48;;
31298;SDS011;17927;52.350;13.402;2024-03-06T03:15:21;21.73;;;14.57;;
31298;SDS011;17927;52.350;13.402;2024-03-06T03:17:46;21.23;;;14.25;;
31298;SDS011;17927;52.350;13.402;2024-03-06T03:20:12;22.95;;;13.98;;
31298;SDS011;17927;52.350;13.402;2024-03-06T03:22:40;24.08;;;14.68;;
31298;SDS011;17927;52.350;13.402;2024-03-06T03:25:09;19.42;;;13.15;;
31298;SDS011;17927;52.350;13.402;2024-03-06T03:27:39;20.25;;;13.98;;
31298;SDS011;17927;52.350;13.402;2024-03-06T03:30:08;24.45;;;14.60;;
31298;SDS011;17927;52.350;13.402;2024-03-06T03:32:37;21.33;;;14.27;;
31298;SDS011;17927;52.350;13.402;2024-03-06T03:35:04;22.13;;;13.90;;
31298;SDS011;17927;52.350;13.402;2024-03-06T03:37:30;22.55;;;14.80;;
31298;SDS011;17927;52.350;13.402;2024-03-06T03:39:55;21.20;;;14.13;;
31298;SDS011;17927;52.350;13.402;2024-03-06T03:42:20;22.88;;;14.55;;
31298;SDS011;17927;52.350;13.402;2024-03-06T03:44:46;24.27;;;14.57;;
31298;SDS011;17927;52.350;13.402;2024-03-06T03:47:11;26.42;;;15.52;;
31298;SDS011;17927;52.350;13.402;2024-03-06T03:49:37;19.35;;;13.57;;
31298;SDS011;17927;52.350;13.402;2024-03-06T03:52:02;22.40;;;15.35;;
31298;SDS011;17927;52.350;13.402;2024-03-06T03:54:28;22.52;;;14.82;;
31298;SDS011;17927;52.350;13.402;2024-03-06T03:56:53;24.17;;;15.25;;
31298;SDS011;17927;52.350;13.402;2024-03-06T03:59:18;21.75;;;15.55;;
31298;SDS011;17927;52.350;13.402;2024-03-06T04:01:46;21.60;;;14.57;;
31298;SDS011;17927;52.350;13.402;2024-03-06T04:04:12;23.88;;;15.55;;
31298;SDS011;17927;52.350;13.402;2024-03-06T04:06:38;24.65;;;16.10;;
31298;SDS011;17927;52.350;13.402;2024-03-06T04:09:03;24.95;;;15.32;;
31298;SDS011;17927;52.350;13.402;2024-03-06T04:11:29;29.90;;;15.75;;
31298;SDS011;17927;52.350;13.402;2024-03-06T04:13:55;28.05;;;15.02;;
31298;SDS011;17927;52.350;13.402;2024-03-06T04:16:20;25.25;;;15.80;;
31298;SDS011;17927;52.350;13.402;2024-03-06T04:18:46;22.75;;;14.80;;
31298;SDS011;17927;52.350;13.402;2024-03-06T04:21:11;25.45;;;15.27;;
31298;SDS011;17927;52.350;13.402;2024-03-06T04:23:36;21.67;;;14.27;;
31298;SDS011;17927;52.350;13.402;2024-03-06T04:26:02;28.45;;;15.68;;
31298;SDS011;17927;52.350;13.402;2024-03-06T04:28:28;26.02;;;16.38;;
31298;SDS011;17927;52.350;13.402;2024-03-06T04:30:54;27.75;;;15.30;;
31298;SDS011;17927;52.350;13.402;2024-03-06T04:33:20;25.17;;;15.27;;
31298;SDS011;17927;52.350;13.402;2024-03-06T04:35:45;26.08;;;15.88;;
31298;SDS011;17927;52.350;13.402;2024-03-06T04:38:11;25.90;;;16.02;;
31298;SDS011;17927;52.350;13.402;2024-03-06T04:40:36;30.00;;;17.50;;
31298;SDS011;17927;52.350;13.402;2024-03-06T04:43:01;23.67;;;15.38;;
31298;SDS011;17927;52.350;13.402;2024-03-06T04:45:27;23.60;;;15.77;;
31298;SDS011;17927;52.350;13.402;2024-03-06T04:47:53;25.95;;;16.60;;
31298;SDS011;17927;52.350;13.402;2024-03-06T04:50:19;26.73;;;16.67;;
31298;SDS011;17927;52.350;13.402;2024-03-06T04:52:44;29.17;;;16.95;;
31298;SDS011;17927;52.350;13.402;2024-03-06T04:55:10;25.95;;;15.73;;
31298;SDS011;17927;52.350;13.402;2024-03-06T04:57:36;27.80;;;16.67;;
31298;SDS011;17927;52.350;13.402;2024-03-06T05:00:06;26.38;;;17.20;;
31298;SDS011;17927;52.350;13.402;2024-03-06T05:02:32;26.15;;;15.60;;
31298;SDS011;17927;52.350;13.402;2024-03-06T05:05:01;28.85;;;16.45;;
31298;SDS011;17927;52.350;13.402;2024-03-06T05:07:30;31.23;;;17.55;;
31298;SDS011;17927;52.350;13.402;2024-03-06T05:09:56;25.05;;;17.00;;
31298;SDS011;17927;52.350;13.402;2024-03-06T05:12:25;28.98;;;18.02;;
31298;SDS011;17927;52.350;13.402;2024-03-06T05:14:51;27.90;;;16.90;;
31298;SDS011;17927;52.350;13.402;2024-03-06T05:17:17;33.03;;;18.42;;
31298;SDS011;17927;52.350;13.402;2024-03-06T05:19:43;29.40;;;18.75;;
31298;SDS011;17927;52.350;13.402;2024-03-06T05:22:09;35.78;;;19.48;;
31298;SDS011;17927;52.350;13.402;2024-03-06T05:24:36;28.48;;;17.50;;
31298;SDS011;17927;52.350;13.402;2024-03-06T05:27:02;30.35;;;19.17;;
31298;SDS011;17927;52.350;13.402;2024-03-06T05:29:27;30.13;;;17.80;;
31298;SDS011;17927;52.350;13.402;2024-03-06T05:31:52;30.67;;;17.58;;
31298;SDS011;17927;52.350;13.402;2024-03-06T05:34:18;27.13;;;17.90;;
31298;SDS011;17927;52.350;13.402;2024-03-06T05:36:43;32.35;;;19.20;;
31298;SDS011;17927;52.350;13.402;2024-03-06T05:39:08;32.42;;;21.08;;
31298;SDS011;17927;52.350;13.402;2024-03-06T05:41:37;34.88;;;19.45;;
31298;SDS011;17927;52.350;13.402;2024-03-06T05:44:04;30.58;;;18.73;;
31298;SDS011;17927;52.350;13.402;2024-03-06T05:46:29;30.05;;;18.10;;
31298;SDS011;17927;52.350;13.402;2024-03-06T05:48:54;29.73;;;18.73;;
31298;SDS011;17927;52.350;13.402;2024-03-06T05:51:19;25.10;;;16.40;;
31298;SDS011;17927;52.350;13.402;2024-03-06T05:53:45;30.98;;;16.90;;
31298;SDS011;17927;52.350;13.402;2024-03-06T05:56:10;25.27;;;16.40;;
31298;SDS011;17927;52.350;13.402;2024-03-06T05:58:35;27.15;;;17.40;;
31298;SDS011;17927;52.350;13.402;2024-03-06T06:01:01;25.25;;;16.48;;
31298;SDS011;17927;52.350;13.402;2024-03-06T06:03:26;25.52;;;16.17;;
31298;SDS011;17927;52.350;13.402;2024-03-06T06:05:53;31.50;;;16.35;;
31298;SDS011;17927;52.350;13.402;2024-03-06T06:08:18;25.48;;;17.10;;
31298;SDS011;17927;52.350;13.402;2024-03-06T06:10:44;27.73;;;17.40;;
31298;SDS011;17927;52.350;13.402;2024-03-06T06:13:09;28.25;;;17.75;;
31298;SDS011;17927;52.350;13.402;2024-03-06T06:15:34;27.23;;;16.42;;
31298;SDS011;17927;52.350;13.402;2024-03-06T06:17:59;31.95;;;17.70;;
31298;SDS011;17927;52.350;13.402;2024-03-06T06:20:25;26.65;;;16.77;;
31298;SDS011;17927;52.350;13.402;2024-03-06T06:22:50;34.85;;;18.50;;
31298;SDS011;17927;52.350;13.402;2024-03-06T06:25:16;29.17;;;17.75;;
31298;SDS011;17927;52.350;13.402;2024-03-06T06:27:41;36.13;;;20.77;;
31298;SDS011;17927;52.350;13.402;2024-03-06T06:30:06;30.65;;;18.05;;
31298;SDS011;17927;52.350;13.402;2024-03-06T06:32:36;30.17;;;19.55;;
31298;SDS011;17927;52.350;13.402;2024-03-06T06:35:01;32.20;;;18.98;;
31298;SDS011;17927;52.350;13.402;2024-03-06T06:37:27;31.92;;;17.55;;
31298;SDS011;17927;52.350;13.402;2024-03-06T06:39:52;27.67;;;17.13;;
31298;SDS011;17927;52.350;13.402;2024-03-06T06:42:17;27.77;;;16.98;;
31298;SDS011;17927;52.350;13.402;2024-03-06T06:44:42;28.10;;;16.67;;
31298;SDS011;17927;52.350;13.402;2024-03-06T06:47:08;34.20;;;16.95;;
31298;SDS011;17927;52.350;13.402;2024-03-06T06:49:33;31.88;;;16.50;;
31298;SDS011;17927;52.350;13.402;2024-03-06T06:51:59;32.67;;;16.67;;
31298;SDS011;17927;52.350;13.402;2024-03-06T06:54:24;36.15;;;17.42;;
31298;SDS011;17927;52.350;13.402;2024-03-06T06:56:49;32.88;;;17.83;;
31298;SDS011;17927;52.350;13.402;2024-03-06T06:59:14;24.15;;;16.02;;
31298;SDS011;17927;52.350;13.402;2024-03-06T07:01:40;28.90;;;16.33;;
31298;SDS011;17927;52.350;13.402;2024-03-06T07:04:08;28.42;;;15.50;;
31298;SDS011;17927;52.350;13.402;2024-03-06T07:06:33;26.40;;;16.02;;
31298;SDS011;17927;52.350;13.402;2024-03-06T07:08:58;31.05;;;17.27;;
31298;SDS011;17927;52.350;13.402;2024-03-06T07:11:24;27.40;;;16.33;;
31298;SDS011;17927;52.350;13.402;2024-03-06T07:13:49;34.28;;;16.60;;
31298;SDS011;17927;52.350;13.402;2024-03-06T07:16:14;43.42;;;17.20;;
31298;SDS011;17927;52.350;13.402;2024-03-06T07:18:40;36.58;;;16.80;;
31298;SDS011;17927;52.350;13.402;2024-03-06T07:21:05;38.53;;;16.40;;
31298;SDS011;17927;52.350;13.402;2024-03-06T07:23:30;29.60;;;16.08;;
31298;SDS011;17927;52.350;13.402;2024-03-06T07:25:58;32.33;;;17.92;;
31298;SDS011;17927;52.350;13.402;2024-03-06T07:28:24;30.33;;;17.08;;
31298;SDS011;17927;52.350;13.402;2024-03-06T07:30:50;27.38;;;16.65;;
31298;SDS011;17927;52.350;13.402;2024-03-06T07:33:16;34.78;;;16.70;;
31298;SDS011;17927;52.350;13.402;2024-03-06T07:35:41;38.88;;;16.85;;
31298;SDS011;17927;52.350;13.402;2024-03-06T07:38:06;31.73;;;17.25;;
31298;SDS011;17927;52.350;13.402;2024-03-06T07:40:31;35.53;;;16.45;;
31298;SDS011;17927;52.350;13.402;2024-03-06T07:42:57;46.58;;;16.00;;
31298;SDS011;17927;52.350;13.402;2024-03-06T07:45:22;60.70;;;16.77;;
31298;SDS011;17927;52.350;13.402;2024-03-06T07:47:48;39.30;;;16.85;;
31298;SDS011;17927;52.350;13.402;2024-03-06T07:50:13;29.75;;;16.70;;
31298;SDS011;17927;52.350;13.402;2024-03-06T07:52:43;40.90;;;16.87;;
31298;SDS011;17927;52.350;13.402;2024-03-06T07:55:10;35.20;;;16.58;;
31298;SDS011;17927;52.350;13.402;2024-03-06T07:57:35;40.33;;;17.75;;
31298;SDS011;17927;52.350;13.402;2024-03-06T08:00:01;49.08;;;16.38;;
31298;SDS011;17927;52.350;13.402;2024-03-06T08:02:32;33.03;;;15.95;;
31298;SDS011;17927;52.350;13.402;2024-03-06T08:04:58;41.38;;;17.30;;
31298;SDS011;17927;52.350;13.402;2024-03-06T08:07:23;39.53;;;17.65;;
31298;SDS011;17927;52.350;13.402;2024-03-06T08:09:48;43.35;;;17.77;;
31298;SDS011;17927;52.350;13.402;2024-03-06T08:12:13;43.83;;;18.42;;
31298;SDS011;17927;52.350;13.402;2024-03-06T08:14:39;47.67;;;18.35;;
31298;SDS011;17927;52.350;13.402;2024-03-06T08:17:04;35.38;;;18.27;;
31298;SDS011;17927;52.350;13.402;2024-03-06T08:19:29;34.20;;;18.33;;
31298;SDS011;17927;52.350;13.402;2024-03-06T08:21:54;39.53;;;19.67;;
31298;SDS011;17927;52.350;13.402;2024-03-06T08:24:20;41.33;;;19.40;;
31298;SDS011;17927;52.350;13.402;2024-03-06T08:26:45;33.22;;;18.67;;
31298;SDS011;17927;52.350;13.402;2024-03-06T08:29:10;33.10;;;18.30;;
31298;SDS011;17927;52.350;13.402;2024-03-06T08:31:35;32.03;;;18.83;;
31298;SDS011;17927;52.350;13.402;2024-03-06T08:34:01;32.63;;;18.00;;
31298;SDS011;17927;52.350;13.402;2024-03-06T08:36:26;34.03;;;18.30;;
31298;SDS011;17927;52.350;13.402;2024-03-06T08:38:51;30.95;;;18.63;;
31298;SDS011;17927;52.350;13.402;2024-03-06T08:41:16;26.60;;;17.20;;
31298;SDS011;17927;52.350;13.402;2024-03-06T08:43:42;30.05;;;18.50;;
31298;SDS011;17927;52.350;13.402;2024-03-06T08:46:07;24.98;;;15.60;;
31298;SDS011;17927;52.350;13.402;2024-03-06T08:48:32;27.33;;;16.25;;
31298;SDS011;17927;52.350;13.402;2024-03-06T08:50:57;25.27;;;16.13;;
31298;SDS011;17927;52.350;13.402;2024-03-06T08:53:23;27.33;;;16.92;;
31298;SDS011;17927;52.350;13.402;2024-03-06T08:55:48;25.60;;;15.90;;
31298;SDS011;17927;52.350;13.402;2024-03-06T08:58:14;27.10;;;15.27;;
31298;SDS011;17927;52.350;13.402;2024-03-06T09:00:39;24.33;;;16.10;;
31298;SDS011;17927;52.350;13.402;2024-03-06T09:03:05;23.58;;;15.05;;
31298;SDS011;17927;52.350;13.402;2024-03-06T09:05:30;26.58;;;16.90;;
31298;SDS011;17927;52.350;13.402;2024-03-06T09:07:56;26.48;;;16.83;;
31298;SDS011;17927;52.350;13.402;2024-03-06T09:10:22;23.42;;;16.02;;
31298;SDS011;17927;52.350;13.402;2024-03-06T09:12:47;26.30;;;16.90;;
31298;SDS011;17927;52.350;13.402;2024-03-06T09:15:14;23.67;;;15.95;;
31298;SDS011;17927;52.350;13.402;2024-03-06T09:17:40;25.42;;;16.77;;
31298;SDS011;17927;52.350;13.402;2024-03-06T09:20:05;20.58;;;14.85;;
31298;SDS011;17927;52.350;13.402;2024-03-06T09:22:39;25.63;;;15.65;;
31298;SDS011;17927;52.350;13.402;2024-03-06T09:25:05;18.35;;;14.52;;
31298;SDS011;17927;52.350;13.402;2024-03-06T09:27:31;21.63;;;15.23;;
31298;SDS011;17927;52.350;13.402;2024-03-06T09:29:57;21.00;;;15.27;;
31298;SDS011;17927;52.350;13.402;2024-03-06T09:32:22;20.50;;;15.30;;
31298;SDS011;17927;52.350;13.402;2024-03-06T09:34:47;25.45;;;16.42;;
31298;SDS011;17927;52.350;13.402;2024-03-06T09:37:13;20.95;;;14.98;;
31298;SDS011;17927;52.350;13.402;2024-03-06T09:39:39;18.98;;;14.13;;
31298;SDS011;17927;52.350;13.402;2024-03-06T09:42:04;23.80;;;16.15;;
31298;SDS011;17927;52.350;13.402;2024-03-06T09:44:29;23.40;;;16.17;;
31298;SDS011;17927;52.350;13.402;2024-03-06T09:46:55;21.48;;;13.88;;
31298;SDS011;17927;52.350;13.402;2024-03-06T09:51:52;17.95;;;13.05;;
31298;SDS011;17927;52.350;13.402;2024-03-06T09:54:19;22.45;;;13.73;;
31298;SDS011;17927;52.350;13.402;2024-03-06T09:56:44;21.58;;;14.73;;
31298;SDS011;17927;52.350;13.402;2024-03-06T09:59:11;16.38;;;12.30;;
31298;SDS011;17927;52.350;13.402;2024-03-06T10:01:39;13.02;;;10.52;;
31298;SDS011;17927;52.350;13.402;2024-03-06T10:06:48;13.73;;;9.77;;
31298;SDS011;17927;52.350;13.402;2024-03-06T10:09:16;10.43;;;9.35;;
31298;SDS011;17927;52.350;13.402;2024-03-06T10:11:42;15.13;;;9.75;;
31298;SDS011;17927;52.350;13.402;2024-03-06T10:14:08;11.55;;;9.30;;
31298;SDS011;17927;52.350;13.402;2024-03-06T10:16:35;16.77;;;9.88;;
31298;SDS011;17927;52.350;13.402;2024-03-06T10:19:16;12.30;;;9.27;;
31298;SDS011;17927;52.350;13.402;2024-03-06T10:21:43;15.23;;;9.93;;
31298;SDS011;17927;52.350;13.402;2024-03-06T10:24:16;10.20;;;8.45;;
31298;SDS011;17927;52.350;13.402;2024-03-06T10:26:43;12.65;;;8.90;;
31298;SDS011;17927;52.350;13.402;2024-03-06T10:29:08;11.25;;;8.70;;
31298;SDS011;17927;52.350;13.402;2024-03-06T10:31:34;10.10;;;8.25;;
31298;SDS011;17927;52.350;13.402;2024-03-06T10:33:59;9.57;;;8.45;;
31298;SDS011;17927;52.350;13.402;2024-03-06T10:36:30;9.23;;;8.27;;
31298;SDS011;17927;52.350;13.402;2024-03-06T10:38:57;12.38;;;8.30;;
31298;SDS011;17927;52.350;13.402;2024-03-06T10:41:26;11.82;;;8.93;;
31298;SDS011;17927;52.350;13.402;2024-03-06T10:43:57;9.90;;;8.68;;
31298;SDS011;17927;52.350;13.402;2024-03-06T10:46:24;14.77;;;8.93;;
31298;SDS011;17927;52.350;13.402;2024-03-06T10:48:52;15.95;;;8.65;;
31298;SDS011;17927;52.350;13.402;2024-03-06T10:51:18;14.05;;;9.90;;
31298;SDS011;17927;52.350;13.402;2024-03-06T10:53:46;10.85;;;8.75;;
31298;SDS011;17927;52.350;13.402;2024-03-06T10:56:11;14.23;;;8.60;;
31298;SDS011;17927;52.350;13.402;2024-03-06T10:58:37;14.27;;;9.57;;
31298;SDS011;17927;52.350;13.402;2024-03-06T11:01:05;14.00;;;8.65;;
31298;SDS011;17927;52.350;13.402;2024-03-06T11:03:32;10.27;;;8.30;;
31298;SDS011;17927;52.350;13.402;2024-03-06T11:05:58;10.77;;;8.00;;
31298;SDS011;17927;52.350;13.402;2024-03-06T11:08:23;11.70;;;8.50;;
31298;SDS011;17927;52.350;13.402;2024-03-06T11:10:50;10.73;;;8.52;;
31298;SDS011;17927;52.350;13.402;2024-03-06T11:15:45;10.20;;;8.50;;
31298;SDS011;17927;52.350;13.402;2024-03-06T11:23:26;7.30;;;6.60;;
31298;SDS011;17927;52.350;13.402;2024-03-06T11:28:19;9.20;;;8.05;;
31298;SDS011;17927;52.350;13.402;2024-03-06T11:30:46;7.53;;;6.78;;
31298;SDS011;17927;52.350;13.402;2024-03-06T11:33:35;11.00;;;8.23;;
31298;SDS011;17927;52.350;13.402;2024-03-06T11:38:47;9.80;;;6.63;;
31298;SDS011;17927;52.350;13.402;2024-03-06T11:41:12;8.65;;;7.25;;
31298;SDS011;17927;52.350;13.402;2024-03-06T11:43:43;7.70;;;6.95;;
31298;SDS011;17927;52.350;13.402;2024-03-06T11:46:09;7.93;;;7.13;;
31298;SDS011;17927;52.350;13.402;2024-03-06T11:48:36;8.85;;;7.70;;
31298;SDS011;17927;52.350;13.402;2024-03-06T11:51:01;8.05;;;7.32;;
31298;SDS011;17927;52.350;13.402;2024-03-06T11:53:28;7.43;;;6.72;;
31298;SDS011;17927;52.350;13.402;2024-03-06T11:55:55;10.55;;;7.18;;
31298;SDS011;17927;52.350;13.402;2024-03-06T11:58:21;8.57;;;6.75;;
31298;SDS011;17927;52.350;13.402;2024-03-06T12:00:47;8.02;;;6.55;;
31298;SDS011;17927;52.350;13.402;2024-03-06T12:03:12;6.53;;;5.93;;
31298;SDS011;17927;52.350;13.402;2024-03-06T12:05:38;6.80;;;6.20;;
31298;SDS011;17927;52.350;13.402;2024-03-06T12:08:03;9.07;;;6.43;;
31298;SDS011;17927;52.350;13.402;2024-03-06T12:10:32;9.13;;;6.57;;
31298;SDS011;17927;52.350;13.402;2024-03-06T12:13:01;10.02;;;6.47;;
31298;SDS011;17927;52.350;13.402;2024-03-06T12:15:28;7.35;;;6.65;;
31298;SDS011;17927;52.350;13.402;2024-03-06T12:17:53;8.35;;;6.47;;
31298;SDS011;17927;52.350;13.402;2024-03-06T12:20:19;7.25;;;6.55;;
31298;SDS011;17927;52.350;13.402;2024-03-06T12:22:51;7.40;;;6.70;;
31298;SDS011;17927;52.350;13.402;2024-03-06T12:25:24;8.40;;;7.00;;
31298;SDS011;17927;52.350;13.402;2024-03-06T12:27:51;7.90;;;6.47;;
31298;SDS011;17927;52.350;13.402;2024-03-06T12:30:18;11.02;;;7.63;;
31298;SDS011;17927;52.350;13.402;2024-03-06T12:32:55;8.00;;;7.20;;
31298;SDS011;17927;52.350;13.402;2024-03-06T12:35:24;13.60;;;7.25;;
31298;SDS011;17927;52.350;13.402;2024-03-06T12:37:51;8.15;;;7.00;;
31298;SDS011;17927;52.350;13.402;2024-03-06T12:40:16;9.38;;;8.00;;
31298;SDS011;17927;52.350;13.402;2024-03-06T12:42:41;10.25;;;6.82;;
31298;SDS011;17927;52.350;13.402;2024-03-06T12:45:07;8.40;;;7.60;;
31298;SDS011;17927;52.350;13.402;2024-03-06T12:47:33;8.50;;;7.10;;
31298;SDS011;17927;52.350;13.402;2024-03-06T12:49:58;7.80;;;6.70;;
31298;SDS011;17927;52.350;13.402;2024-03-06T12:52:24;6.80;;;6.13;;
31298;SDS011;17927;52.350;13.402;2024-03-06T12:54:49;8.05;;;6.55;;
31298;SDS011;17927;52.350;13.402;2024-03-06T12:57:14;5.40;;;5.00;;
31298;SDS011;17927;52.350;13.402;2024-03-06T12:59:39;6.82;;;6.13;;
31298;SDS011;17927;52.350;13.402;2024-03-06T13:02:05;8.85;;;5.93;;
31298;SDS011;17927;52.350;13.402;2024-03-06T13:04:30;7.30;;;6.63;;
31298;SDS011;17927;52.350;13.402;2024-03-06T13:06:55;7.72;;;6.82;;
31298;SDS011;17927;52.350;13.402;2024-03-06T13:09:22;8.18;;;7.18;;
31298;SDS011;17927;52.350;13.402;2024-03-06T13:11:48;8.02;;;7.32;;
31298;SDS011;17927;52.350;13.402;2024-03-06T13:14:13;8.18;;;7.38;;
31298;SDS011;17927;52.350;13.402;2024-03-06T13:16:39;8.68;;;7.88;;
31298;SDS011;17927;52.350;13.402;2024-03-06T13:19:04;8.13;;;7.45;;
31298;SDS011;17927;52.350;13.402;2024-03-06T13:21:29;8.90;;;8.00;;
31298;SDS011;17927;52.350;13.402;2024-03-06T13:23:54;9.63;;;6.95;;
31298;SDS011;17927;52.350;13.402;2024-03-06T13:26:20;9.88;;;8.10;;
31298;SDS011;17927;52.350;13.402;2024-03-06T13:28:45;8.55;;;7.53;;
31298;SDS011;17927;52.350;13.402;2024-03-06T13:31:11;8.00;;;6.63;;
31298;SDS011;17927;52.350;13.402;2024-03-06T13:33:36;11.32;;;7.03;;
31298;SDS011;17927;52.350;13.402;2024-03-06T13:36:01;11.85;;;7.63;;
31298;SDS011;17927;52.350;13.402;2024-03-06T13:38:28;7.88;;;6.88;;
31298;SDS011;17927;52.350;13.402;2024-03-06T13:40:53;7.93;;;7.03;;
31298;SDS011;17927;52.350;13.402;2024-03-06T13:43:18;7.90;;;7.10;;
31298;SDS011;17927;52.350;13.402;2024-03-06T13:45:49;10.45;;;7.50;;
31298;SDS011;17927;52.350;13.402;2024-03-06T13:48:15;9.00;;;8.10;;
31298;SDS011;17927;52.350;13.402;2024-03-06T13:50:42;14.18;;;8.43;;
31298;SDS011;17927;52.350;13.402;2024-03-06T13:53:07;10.68;;;9.15;;
31298;SDS011;17927;52.350;13.402;2024-03-06T13:55:33;11.35;;;9.30;;
31298;SDS011;17927;52.350;13.402;2024-03-06T13:57:59;17.33;;;9.68;;
31298;SDS011;17927;52.350;13.402;2024-03-06T14:00:25;12.25;;;9.82;;
31298;SDS011;17927;52.350;13.402;2024-03-06T14:02:50;13.20;;;9.90;;
31298;SDS011;17927;52.350;13.402;2024-03-06T14:05:15;12.45;;;11.18;;
31298;SDS011;17927;52.350;13.402;2024-03-06T14:07:40;12.10;;;10.50;;
31298;SDS011;17927;52.350;13.402;2024-03-06T14:10:07;10.98;;;9.88;;
31298;SDS011;17927;52.350;13.402;2024-03-06T14:12:36;11.27;;;10.10;;
31298;SDS011;17927;52.350;13.402;2024-03-06T14:15:02;14.95;;;10.75;;
31298;SDS011;17927;52.350;13.402;2024-03-06T14:17:28;11.00;;;9.85;;
31298;SDS011;17927;52.350;13.402;2024-03-06T14:19:54;10.88;;;9.18;;
31298;SDS011;17927;52.350;13.402;2024-03-06T14:22:19;13.88;;;9.98;;
31298;SDS011;17927;52.350;13.402;2024-03-06T14:24:44;10.90;;;9.23;;
31298;SDS011;17927;52.350;13.402;2024-03-06T14:27:10;11.60;;;10.13;;